Avon, Illinois
Current Conditions -  °F | °C
As of 9:55 AM on Tuesday 21 Oct 2014 (Local Time) from KMQB Reporting Station
Clear Clear  
Wind Chill: 52°   Ceiling: Unl
Heat Index: 52°   Visibility: 10mi
Dew Point: 44°   Wind: 9mph
Humidity: 73%   Direction: 50°NE
Pressure: 30.2"   Gusts: NA
Location:  40.66°N, 90.43°W
Report Text: KMQB 211455Z AUTO 05008KT 10SM CLR 11/07 A3020 RMK AO2 T01120065
Loading
Personal Weather Stations






























Interactive Weather Map
Tropical Storm Tracking
New forecast layout! Learn more

10-Day Weather Forecast

Advertisements
Track Severe Weather on mobile